createdAt,value
2022-10-05T00:02:41.486Z,10.05
2022-10-05T00:05:34.244Z,10.04
2022-10-05T00:08:25.142Z,10.02
2022-10-05T00:11:13.987Z,10.02
2022-10-05T00:14:07.339Z,10.05
2022-10-05T00:16:56.874Z,10.05
2022-10-05T00:19:46.563Z,10.05
2022-10-05T00:22:35.314Z,10.02
2022-10-05T00:25:23.638Z,10.02
2022-10-05T00:28:27.948Z,10.02
2022-10-05T00:31:25.192Z,10.03
2022-10-05T00:34:13.474Z,10.02
2022-10-05T00:37:01.456Z,9.97
2022-10-05T00:39:49.630Z,9.93
2022-10-05T00:43:07.464Z,9.94
2022-10-05T00:46:07.689Z,9.96
2022-10-05T00:49:01.977Z,9.98
2022-10-05T00:52:22.252Z,10.00
2022-10-05T00:55:30.312Z,10.05
2022-10-05T00:58:35.307Z,10.09
2022-10-05T01:01:26.036Z,10.12
2022-10-05T01:04:21.083Z,10.13
2022-10-05T01:07:39.983Z,10.16
2022-10-05T01:11:04.100Z,10.19
2022-10-05T01:14:16.948Z,10.18
2022-10-05T01:17:04.780Z,10.16
2022-10-05T01:20:11.483Z,10.13
2022-10-05T01:23:11.709Z,10.13
2022-10-05T01:26:24.936Z,10.15
2022-10-05T01:29:31.290Z,10.15
2022-10-05T01:32:31.244Z,10.17
2022-10-05T01:35:39.002Z,10.17
2022-10-05T01:38:52.725Z,10.16
2022-10-05T01:42:06.632Z,10.16
2022-10-05T01:45:14.179Z,10.17
2022-10-05T01:48:22.524Z,10.18
2022-10-05T01:51:31.417Z,10.17
2022-10-05T01:54:40.204Z,10.14
2022-10-05T01:57:46.641Z,10.08
2022-10-05T02:00:54.853Z,10.07
2022-10-05T02:04:18.678Z,10.00
2022-10-05T02:07:35.143Z,9.94
2022-10-05T02:10:32.857Z,9.96
2022-10-05T02:13:58.642Z,9.95
2022-10-05T02:16:49.529Z,9.95
2022-10-05T02:19:48.814Z,9.93
2022-10-05T02:22:45.981Z,9.95
2022-10-05T02:25:38.984Z,9.96
2022-10-05T02:28:47.731Z,9.97
2022-10-05T02:31:45.225Z,9.93
2022-10-05T02:34:38.857Z,9.92
2022-10-05T02:37:56.375Z,9.91
2022-10-05T02:41:02.868Z,9.82
2022-10-05T02:44:05.749Z,9.78
2022-10-05T02:47:19.784Z,9.75
2022-10-05T02:50:46.909Z,9.74
2022-10-05T02:53:44.723Z,9.72
2022-10-05T02:56:52.545Z,9.77
2022-10-05T02:59:48.058Z,9.79
2022-10-05T03:02:44.561Z,9.78
2022-10-05T03:05:40.392Z,9.69
2022-10-05T03:08:35.193Z,9.62
2022-10-05T03:11:46.926Z,9.56
2022-10-05T03:15:01.964Z,9.52
2022-10-05T03:18:08.802Z,9.46
2022-10-05T03:21:15.627Z,9.47
2022-10-05T03:24:45.009Z,9.41
2022-10-05T03:27:42.325Z,9.39
2022-10-05T03:30:37.501Z,9.43
2022-10-05T03:33:29.037Z,9.42
2022-10-05T03:36:37.533Z,9.40
2022-10-05T03:39:42.057Z,9.39
2022-10-05T03:42:37.446Z,9.43
2022-10-05T03:45:30.419Z,9.48
2022-10-05T03:48:33.743Z,9.50
2022-10-05T03:51:51.669Z,9.49
2022-10-05T03:55:03.492Z,9.47
2022-10-05T03:57:56.726Z,9.43
2022-10-05T04:00:52.355Z,9.45
2022-10-05T04:03:48.367Z,9.45
2022-10-05T04:06:42.755Z,9.50
2022-10-05T04:09:37.058Z,9.52
2022-10-05T04:12:49.561Z,9.52
2022-10-05T04:15:46.333Z,9.55
2022-10-05T04:18:43.837Z,9.56
2022-10-05T04:21:52.861Z,9.56
2022-10-05T04:25:00.778Z,9.59
2022-10-05T04:28:01.441Z,9.64
2022-10-05T04:30:52.424Z,9.68
2022-10-05T04:33:41.007Z,9.69
2022-10-05T04:36:39.070Z,9.69
2022-10-05T04:39:54.164Z,9.75
2022-10-05T04:42:51.941Z,9.81
2022-10-05T04:45:49.967Z,9.83
2022-10-05T04:49:08.727Z,9.84
2022-10-05T04:52:22.708Z,9.87
2022-10-05T04:55:23.225Z,9.87
2022-10-05T04:58:41.531Z,9.92
2022-10-05T05:02:01.683Z,9.98
2022-10-05T05:05:01.588Z,10.04
2022-10-05T05:08:17.303Z,10.11
2022-10-05T05:12:04.015Z,10.17
2022-10-05T05:15:13.612Z,10.22
2022-10-05T05:18:01.750Z,10.22
2022-10-05T05:21:28.940Z,10.29
2022-10-05T05:24:47.298Z,10.36
2022-10-05T05:27:51.202Z,10.40
2022-10-05T05:30:50.545Z,10.39
2022-10-05T05:33:59.151Z,10.41
2022-10-05T05:37:04.580Z,10.46
2022-10-05T05:39:59.424Z,10.47
2022-10-05T05:43:01.935Z,10.52
2022-10-05T05:46:07.339Z,10.56
2022-10-05T05:48:58.061Z,10.62
2022-10-05T05:51:55.623Z,10.76
2022-10-05T05:54:57.887Z,10.75
2022-10-05T05:58:04.483Z,10.71
2022-10-05T06:00:52.594Z,10.64
2022-10-05T06:03:47.367Z,10.61
2022-10-05T06:06:41.983Z,10.54
2022-10-05T06:10:30.024Z,10.62
2022-10-05T06:13:30.705Z,10.62
2022-10-05T06:16:36.872Z,10.65
2022-10-05T06:19:28.294Z,10.72
2022-10-05T06:22:47.902Z,10.81
2022-10-05T06:26:08.264Z,10.90
2022-10-05T06:29:04.045Z,11.03
2022-10-05T06:32:48.848Z,11.18
2022-10-05T06:35:46.284Z,11.34
2022-10-05T06:39:08.911Z,11.34
2022-10-05T06:42:20.158Z,11.48
2022-10-05T06:46:05.579Z,11.62
2022-10-05T06:49:33.881Z,11.82
2022-10-05T06:53:29.302Z,11.90
2022-10-05T06:56:26.668Z,11.93
2022-10-05T06:59:31.722Z,11.95
2022-10-05T07:02:32.673Z,12.09
2022-10-05T07:05:47.918Z,12.27
2022-10-05T07:08:35.831Z,12.29
2022-10-05T07:11:58.509Z,12.14
2022-10-05T07:14:56.049Z,12.04
2022-10-05T07:17:49.442Z,12.10
2022-10-05T07:21:12.896Z,12.00
2022-10-05T07:24:23.415Z,11.78
2022-10-05T07:27:21.294Z,11.79
2022-10-05T07:30:14.845Z,11.95
2022-10-05T07:33:33.681Z,12.13
2022-10-05T07:37:00.606Z,12.26
2022-10-05T07:40:10.028Z,12.41
2022-10-05T07:43:35.933Z,12.57
2022-10-05T07:46:54.330Z,12.72
2022-10-05T07:49:49.952Z,12.81
2022-10-05T07:52:41.466Z,12.85
2022-10-05T07:55:44.438Z,12.78
2022-10-05T07:58:43.245Z,12.67
2022-10-05T08:01:36.799Z,12.61
2022-10-05T08:04:32.069Z,12.59
2022-10-05T08:07:20.411Z,12.68
2022-10-05T08:10:14.499Z,12.84
2022-10-05T08:13:05.236Z,12.88
2022-10-05T08:16:00.451Z,12.75
2022-10-05T08:19:03.177Z,12.51
2022-10-05T08:22:10.054Z,12.18
2022-10-05T08:25:04.327Z,11.89
2022-10-05T08:28:04.024Z,11.76
2022-10-05T08:31:15.329Z,11.82
2022-10-05T08:34:31.117Z,11.91
2022-10-05T08:37:23.926Z,12.12
2022-10-05T08:40:37.531Z,12.15
2022-10-05T08:43:45.012Z,12.14
2022-10-05T08:47:10.678Z,12.02
2022-10-05T08:54:16.988Z,11.32
2022-10-05T08:57:35.932Z,11.24
2022-10-05T09:00:26.039Z,11.36
2022-10-05T09:03:36.590Z,11.54
2022-10-05T09:06:33.635Z,11.62
2022-10-05T09:09:40.737Z,11.55
2022-10-05T09:12:47.968Z,11.54
2022-10-05T09:16:06.387Z,11.42
2022-10-05T09:19:19.109Z,11.20
2022-10-05T09:22:34.115Z,11.16
2022-10-05T09:25:41.924Z,11.29
2022-10-05T09:29:08.435Z,11.33
2022-10-05T09:32:35.485Z,11.43
2022-10-05T09:35:38.738Z,11.48
2022-10-05T09:38:32.463Z,11.56
2022-10-05T09:41:48.305Z,11.87
2022-10-05T09:45:21.330Z,12.23
2022-10-05T09:48:43.272Z,12.29
2022-10-05T09:52:00.523Z,12.20
2022-10-05T09:55:02.987Z,12.08
2022-10-05T09:57:59.853Z,11.95
2022-10-05T10:01:29.095Z,11.89
2022-10-05T10:04:37.562Z,11.80
2022-10-05T10:07:40.545Z,11.62
2022-10-05T10:10:48.606Z,11.54
2022-10-05T10:13:45.812Z,11.53
2022-10-05T10:17:03.124Z,11.60
2022-10-05T10:19:58.801Z,11.64
2022-10-05T10:23:09.978Z,11.75
2022-10-05T10:26:13.935Z,11.71
2022-10-05T10:29:22.078Z,11.78
2022-10-05T10:32:29.167Z,11.73
2022-10-05T10:35:37.103Z,11.73
2022-10-05T10:38:47.291Z,11.73
2022-10-05T10:41:54.419Z,11.85
2022-10-05T10:45:01.007Z,12.30
2022-10-05T10:47:51.865Z,12.76
2022-10-05T10:50:52.455Z,13.20
2022-10-05T10:53:54.067Z,13.49
2022-10-05T10:57:26.813Z,13.49
2022-10-05T11:00:37.891Z,13.33
2022-10-05T11:03:39.164Z,13.34
2022-10-05T11:06:44.912Z,13.19
2022-10-05T11:10:30.158Z,12.99
2022-10-05T11:13:41.975Z,12.85
2022-10-05T11:16:44.875Z,12.80
2022-10-05T11:19:40.107Z,12.87
2022-10-05T11:22:40.228Z,12.81
2022-10-05T11:25:54.483Z,12.83
2022-10-05T11:29:01.895Z,12.95
2022-10-05T11:32:14.322Z,12.92
2022-10-05T11:35:27.552Z,12.99
2022-10-05T11:38:50.591Z,12.97
2022-10-05T11:41:53.764Z,12.78
2022-10-05T11:45:07.772Z,12.71
2022-10-05T11:48:20.589Z,12.54
2022-10-05T11:51:46.508Z,12.46
2022-10-05T11:55:06.053Z,12.59
2022-10-05T11:57:51.581Z,12.67
2022-10-05T12:00:44.567Z,13.00
2022-10-05T12:03:41.664Z,13.31
2022-10-05T12:06:35.854Z,13.30
2022-10-05T12:09:36.896Z,13.04
2022-10-05T12:12:29.654Z,12.89
2022-10-05T12:15:43.438Z,12.70
2022-10-05T12:18:31.372Z,12.41
2022-10-05T12:21:34.518Z,12.19
2022-10-05T12:24:38.003Z,12.14
2022-10-05T12:27:31.406Z,12.22
2022-10-05T12:30:50.262Z,12.37
2022-10-05T12:34:04.523Z,12.36
2022-10-05T12:37:04.687Z,12.25
2022-10-05T12:40:02.647Z,12.19
2022-10-05T12:42:59.136Z,12.05
2022-10-05T12:46:01.353Z,11.39
2022-10-05T12:49:22.442Z,10.92
2022-10-05T12:52:43.470Z,10.87
2022-10-05T12:56:04.275Z,10.80
2022-10-05T12:58:56.136Z,10.71
2022-10-05T13:01:56.675Z,10.89
2022-10-05T13:05:12.926Z,10.93
2022-10-05T13:08:24.484Z,10.77
2022-10-05T13:11:36.380Z,10.62
2022-10-05T13:14:39.520Z,10.56
2022-10-05T13:17:58.946Z,10.70
2022-10-05T13:21:19.505Z,11.88
2022-10-05T13:24:19.689Z,13.59
2022-10-05T13:27:13.697Z,14.31
2022-10-05T13:30:17.038Z,14.49
2022-10-05T13:33:15.468Z,13.29
2022-10-05T13:36:18.780Z,12.20
2022-10-05T13:39:46.035Z,11.51
2022-10-05T13:43:00.214Z,11.26
2022-10-05T13:46:26.120Z,11.22
2022-10-05T13:49:22.231Z,11.08
2022-10-05T13:52:28.843Z,11.06
2022-10-05T13:55:50.124Z,11.13
2022-10-05T13:59:03.254Z,11.12
2022-10-05T14:02:05.132Z,11.01
2022-10-05T14:05:21.923Z,10.97
2022-10-05T14:08:17.801Z,10.95
2022-10-05T14:11:40.141Z,10.91
2022-10-05T14:14:30.002Z,10.97
2022-10-05T14:17:37.325Z,11.04
2022-10-05T14:20:31.869Z,10.98
2022-10-05T14:23:28.269Z,10.87
2022-10-05T14:26:25.910Z,10.70
2022-10-05T14:29:14.583Z,10.50
2022-10-05T14:32:11.667Z,10.25
2022-10-05T14:35:15.483Z,10.15
2022-10-05T14:38:18.721Z,10.08
2022-10-05T14:41:20.405Z,10.04
2022-10-05T14:44:14.110Z,10.03
2022-10-05T14:47:21.010Z,9.98
2022-10-05T14:50:29.847Z,9.95
2022-10-05T14:53:21.542Z,9.91
2022-10-05T14:56:35.520Z,9.83
2022-10-05T14:59:26.224Z,9.71
2022-10-05T15:02:45.205Z,9.64
2022-10-05T15:05:45.553Z,9.56
2022-10-05T15:08:39.226Z,9.52
2022-10-05T15:12:05.528Z,9.61
2022-10-05T15:15:06.789Z,9.68
2022-10-05T15:18:00.359Z,9.77
2022-10-05T15:21:14.404Z,9.88
2022-10-05T15:24:17.786Z,9.94
2022-10-05T15:27:30.104Z,9.98
2022-10-05T15:30:18.900Z,9.95
2022-10-05T15:33:27.915Z,9.90
2022-10-05T15:36:22.214Z,9.80
2022-10-05T15:39:11.006Z,9.76
2022-10-05T15:42:18.546Z,9.70
2022-10-05T15:45:38.200Z,9.66
2022-10-05T15:48:43.738Z,9.64
2022-10-05T15:52:02.416Z,9.59
2022-10-05T15:55:23.915Z,9.55
2022-10-05T15:58:35.603Z,9.52
2022-10-05T16:01:35.983Z,9.46
2022-10-05T16:04:39.126Z,9.42
2022-10-05T16:08:02.037Z,9.40
2022-10-05T16:10:49.850Z,9.45
2022-10-05T16:13:52.684Z,9.47
2022-10-05T16:17:17.397Z,9.46
2022-10-05T16:20:21.037Z,9.45
2022-10-05T16:23:32.140Z,9.45
2022-10-05T16:26:32.752Z,9.47
2022-10-05T16:29:33.393Z,9.49
2022-10-05T16:32:27.762Z,9.50
2022-10-05T16:35:26.596Z,9.55
2022-10-05T16:38:34.658Z,9.55
2022-10-05T16:41:41.244Z,9.57
2022-10-05T16:44:44.831Z,9.58
2022-10-05T16:47:35.879Z,9.54
2022-10-05T16:50:28.787Z,9.35
2022-10-05T16:53:25.974Z,9.17
2022-10-05T16:56:19.870Z,8.97
2022-10-05T16:59:25.410Z,8.83
2022-10-05T17:02:25.487Z,8.74
2022-10-05T17:05:41.690Z,8.72
2022-10-05T17:08:49.723Z,8.75
2022-10-05T17:12:36.345Z,8.75
2022-10-05T17:15:53.183Z,8.73
2022-10-05T17:19:19.611Z,8.76
2022-10-05T17:22:29.225Z,8.81
2022-10-05T17:25:49.720Z,8.91
2022-10-05T17:28:57.894Z,8.98
2022-10-05T17:32:09.885Z,9.04
2022-10-05T17:35:04.210Z,9.07
2022-10-05T17:38:31.044Z,9.11
2022-10-05T17:41:22.744Z,9.07
2022-10-05T17:44:16.357Z,9.14
2022-10-05T17:47:08.376Z,9.18
2022-10-05T17:50:18.550Z,9.20
2022-10-05T17:53:54.056Z,9.18
2022-10-05T17:56:47.941Z,9.15
2022-10-05T17:59:55.993Z,9.10
2022-10-05T18:02:43.899Z,9.04
2022-10-05T18:05:31.843Z,8.94
2022-10-05T18:08:28.943Z,8.77
2022-10-05T18:11:29.030Z,8.62
2022-10-05T18:14:23.200Z,8.49
2022-10-05T18:17:13.219Z,8.41
2022-10-05T18:20:26.557Z,8.41
2022-10-05T18:23:23.932Z,8.42
2022-10-05T18:26:59.655Z,8.47
2022-10-05T18:30:16.059Z,8.46
2022-10-05T18:33:24.391Z,8.41
2022-10-05T18:36:37.675Z,8.31
2022-10-05T18:39:56.082Z,8.22
2022-10-05T18:43:10.414Z,8.11
2022-10-05T18:46:41.121Z,8.04
2022-10-05T18:49:58.565Z,7.93
2022-10-05T18:53:09.142Z,7.79
2022-10-05T18:56:16.547Z,7.72
2022-10-05T18:59:25.961Z,7.69
2022-10-05T19:02:48.001Z,7.59
2022-10-05T19:05:58.749Z,7.58
2022-10-05T19:09:20.658Z,7.64
2022-10-05T19:12:55.568Z,7.61
2022-10-05T19:16:34.426Z,7.60
2022-10-05T19:19:51.411Z,7.67
2022-10-05T19:23:23.120Z,7.76
2022-10-05T19:26:23.746Z,7.87
2022-10-05T19:29:53.357Z,8.04
2022-10-05T19:32:59.766Z,8.18
2022-10-05T19:36:21.792Z,8.26
2022-10-05T19:39:21.611Z,8.34
2022-10-05T19:42:44.930Z,8.34
2022-10-05T19:45:39.993Z,8.37
2022-10-05T19:48:43.140Z,8.40
2022-10-05T19:51:49.669Z,8.48
2022-10-05T19:54:42.774Z,8.48
2022-10-05T19:57:32.686Z,8.51
2022-10-05T20:00:49.007Z,8.54
2022-10-05T20:03:38.281Z,8.58
2022-10-05T20:06:27.168Z,8.61
2022-10-05T20:09:21.010Z,8.62
2022-10-05T20:12:11.731Z,8.69
2022-10-05T20:15:37.151Z,8.74
2022-10-05T20:19:08.991Z,8.81
2022-10-05T20:21:59.328Z,8.78
2022-10-05T20:24:52.725Z,8.83
2022-10-05T20:27:41.276Z,8.84
2022-10-05T20:30:31.272Z,8.81
2022-10-05T20:33:19.671Z,8.75
2022-10-05T20:36:08.730Z,8.74
2022-10-05T20:39:18.877Z,8.64
2022-10-05T20:42:09.014Z,8.49
2022-10-05T20:44:58.182Z,8.42
2022-10-05T20:47:47.468Z,8.43
2022-10-05T20:50:35.664Z,8.46
2022-10-05T20:53:26.262Z,8.51
2022-10-05T20:56:14.402Z,8.50
2022-10-05T20:59:02.779Z,8.46
2022-10-05T21:01:51.237Z,8.41
2022-10-05T21:04:41.479Z,8.36
2022-10-05T21:07:31.357Z,8.29
2022-10-05T21:10:19.170Z,8.25
2022-10-05T21:13:07.235Z,8.19
2022-10-05T21:15:56.825Z,8.23
2022-10-05T21:18:47.965Z,8.28
2022-10-05T21:21:37.391Z,8.34
2022-10-05T21:24:25.558Z,8.39
2022-10-05T21:27:13.394Z,8.41
2022-10-05T21:30:01.550Z,8.51
2022-10-05T21:32:51.742Z,8.58
2022-10-05T21:35:39.717Z,8.62
2022-10-05T21:38:29.221Z,8.65
2022-10-05T21:41:18.335Z,8.66
2022-10-05T21:44:06.887Z,8.61
2022-10-05T21:46:57.107Z,8.56
2022-10-05T21:49:45.138Z,8.55
2022-10-05T21:52:35.673Z,8.65
2022-10-05T21:55:23.861Z,8.69
2022-10-05T21:58:14.669Z,8.72
2022-10-05T22:01:03.620Z,8.64
2022-10-05T22:03:52.548Z,8.48
2022-10-05T22:06:40.864Z,8.50
2022-10-05T22:09:30.088Z,8.52
2022-10-05T22:12:20.221Z,8.56
2022-10-05T22:15:09.698Z,8.57
2022-10-05T22:17:59.306Z,8.50
2022-10-05T22:20:48.010Z,8.50
2022-10-05T22:23:41.862Z,8.53
2022-10-05T22:26:30.655Z,8.49
2022-10-05T22:29:20.920Z,8.52
2022-10-05T22:32:10.481Z,8.52
2022-10-05T22:34:58.647Z,8.52
2022-10-05T22:37:46.710Z,8.50
2022-10-05T22:40:36.361Z,8.61
2022-10-05T22:43:27.657Z,8.63
2022-10-05T22:46:16.421Z,8.66
2022-10-05T22:49:04.596Z,8.69
2022-10-05T22:51:53.365Z,8.75
2022-10-05T22:54:41.571Z,8.79
2022-10-05T22:57:38.353Z,8.84
2022-10-05T23:00:40.342Z,8.87
2022-10-05T23:03:35.555Z,8.90
2022-10-05T23:06:27.821Z,8.92
2022-10-05T23:09:16.103Z,8.95
2022-10-05T23:12:04.603Z,8.96
2022-10-05T23:14:52.789Z,9.00
2022-10-05T23:17:41.628Z,8.99
2022-10-05T23:20:31.352Z,8.99
2022-10-05T23:23:19.961Z,9.07
2022-10-05T23:26:10.254Z,9.05
2022-10-05T23:28:58.916Z,9.06
2022-10-05T23:31:47.368Z,9.06
2022-10-05T23:34:36.203Z,9.13
2022-10-05T23:37:27.153Z,9.15
2022-10-05T23:40:17.881Z,9.09
2022-10-05T23:43:07.283Z,9.08
2022-10-05T23:45:59.404Z,9.08
2022-10-05T23:48:49.291Z,9.15
2022-10-05T23:51:38.123Z,9.15
2022-10-05T23:54:26.664Z,9.15
2022-10-05T23:57:19.878Z,9.17
